sensor_id;sensor_type;location;lat;lon;timestamp;P1;durP1;ratioP1;P2;durP2;ratioP2
19907;SDS011;10116;53.112;7.356;2023-09-12T00:00:58;7.97;;;7.33;;
19907;SDS011;10116;53.112;7.356;2023-09-12T00:03:30;8.37;;;7.77;;
19907;SDS011;10116;53.112;7.356;2023-09-12T00:05:56;8.00;;;7.10;;
19907;SDS011;10116;53.112;7.356;2023-09-12T00:08:23;8.53;;;7.73;;
19907;SDS011;10116;53.112;7.356;2023-09-12T00:11:05;8.63;;;7.90;;
19907;SDS011;10116;53.112;7.356;2023-09-12T00:13:36;9.60;;;8.70;;
19907;SDS011;10116;53.112;7.356;2023-09-12T00:16:03;8.60;;;7.80;;
19907;SDS011;10116;53.112;7.356;2023-09-12T00:18:30;8.20;;;7.43;;
19907;SDS011;10116;53.112;7.356;2023-09-12T00:20:56;8.40;;;7.73;;
19907;SDS011;10116;53.112;7.356;2023-09-12T00:23:22;8.20;;;7.40;;
19907;SDS011;10116;53.112;7.356;2023-09-12T00:25:49;7.97;;;7.17;;
19907;SDS011;10116;53.112;7.356;2023-09-12T00:28:16;7.93;;;7.33;;
19907;SDS011;10116;53.112;7.356;2023-09-12T00:30:42;8.77;;;7.97;;
19907;SDS011;10116;53.112;7.356;2023-09-12T00:33:08;8.60;;;7.70;;
19907;SDS011;10116;53.112;7.356;2023-09-12T00:35:33;8.10;;;7.50;;
19907;SDS011;10116;53.112;7.356;2023-09-12T00:37:59;8.93;;;8.03;;
19907;SDS011;10116;53.112;7.356;2023-09-12T00:40:25;9.23;;;8.43;;
19907;SDS011;10116;53.112;7.356;2023-09-12T00:42:50;8.73;;;7.93;;
19907;SDS011;10116;53.112;7.356;2023-09-12T00:45:16;9.90;;;8.10;;
19907;SDS011;10116;53.112;7.356;2023-09-12T00:47:42;7.67;;;7.00;;
19907;SDS011;10116;53.112;7.356;2023-09-12T00:50:08;8.53;;;7.83;;
19907;SDS011;10116;53.112;7.356;2023-09-12T00:52:35;7.27;;;6.77;;
19907;SDS011;10116;53.112;7.356;2023-09-12T00:55:03;8.10;;;7.37;;
19907;SDS011;10116;53.112;7.356;2023-09-12T00:57:29;8.30;;;7.50;;
19907;SDS011;10116;53.112;7.356;2023-09-12T00:59:57;7.97;;;7.27;;
19907;SDS011;10116;53.112;7.356;2023-09-12T01:02:24;7.10;;;6.60;;
19907;SDS011;10116;53.112;7.356;2023-09-12T01:04:50;6.60;;;6.17;;
19907;SDS011;10116;53.112;7.356;2023-09-12T01:07:16;7.13;;;6.47;;
19907;SDS011;10116;53.112;7.356;2023-09-12T01:09:42;7.03;;;6.43;;
19907;SDS011;10116;53.112;7.356;2023-09-12T01:12:08;7.80;;;7.10;;
19907;SDS011;10116;53.112;7.356;2023-09-12T01:14:37;7.47;;;6.77;;
19907;SDS011;10116;53.112;7.356;2023-09-12T01:17:03;7.53;;;6.83;;
19907;SDS011;10116;53.112;7.356;2023-09-12T01:19:29;7.10;;;6.50;;
19907;SDS011;10116;53.112;7.356;2023-09-12T01:27:42;7.43;;;6.90;;
19907;SDS011;10116;53.112;7.356;2023-09-12T01:30:11;7.20;;;6.47;;
19907;SDS011;10116;53.112;7.356;2023-09-12T01:32:42;6.93;;;6.43;;
19907;SDS011;10116;53.112;7.356;2023-09-12T01:35:08;7.00;;;6.50;;
19907;SDS011;10116;53.112;7.356;2023-09-12T01:37:33;7.20;;;6.60;;
19907;SDS011;10116;53.112;7.356;2023-09-12T01:39:59;6.87;;;6.43;;
19907;SDS011;10116;53.112;7.356;2023-09-12T01:42:31;7.33;;;6.77;;
19907;SDS011;10116;53.112;7.356;2023-09-12T01:45:17;7.33;;;6.83;;
19907;SDS011;10116;53.112;7.356;2023-09-12T01:47:44;7.67;;;7.00;;
19907;SDS011;10116;53.112;7.356;2023-09-12T01:50:12;7.33;;;6.80;;
19907;SDS011;10116;53.112;7.356;2023-09-12T01:52:39;7.20;;;6.70;;
19907;SDS011;10116;53.112;7.356;2023-09-12T01:55:06;7.70;;;7.00;;
19907;SDS011;10116;53.112;7.356;2023-09-12T01:57:34;7.00;;;6.30;;
19907;SDS011;10116;53.112;7.356;2023-09-12T02:00:01;6.73;;;6.23;;
19907;SDS011;10116;53.112;7.356;2023-09-12T02:02:27;7.60;;;6.97;;
19907;SDS011;10116;53.112;7.356;2023-09-12T02:04:54;7.27;;;6.77;;
19907;SDS011;10116;53.112;7.356;2023-09-12T02:07:27;7.27;;;6.77;;
19907;SDS011;10116;53.112;7.356;2023-09-12T02:09:57;7.30;;;6.70;;
19907;SDS011;10116;53.112;7.356;2023-09-12T02:12:23;6.33;;;5.73;;
19907;SDS011;10116;53.112;7.356;2023-09-12T02:14:49;7.23;;;6.63;;
19907;SDS011;10116;53.112;7.356;2023-09-12T02:17:14;7.10;;;6.57;;
19907;SDS011;10116;53.112;7.356;2023-09-12T02:19:40;6.87;;;6.33;;
19907;SDS011;10116;53.112;7.356;2023-09-12T02:22:05;7.10;;;6.50;;
19907;SDS011;10116;53.112;7.356;2023-09-12T02:24:34;7.53;;;6.93;;
19907;SDS011;10116;53.112;7.356;2023-09-12T02:27:00;8.10;;;7.40;;
19907;SDS011;10116;53.112;7.356;2023-09-12T02:29:25;7.30;;;6.70;;
19907;SDS011;10116;53.112;7.356;2023-09-12T02:31:51;8.13;;;7.37;;
19907;SDS011;10116;53.112;7.356;2023-09-12T02:34:17;7.63;;;6.97;;
19907;SDS011;10116;53.112;7.356;2023-09-12T02:36:42;8.27;;;7.47;;
19907;SDS011;10116;53.112;7.356;2023-09-12T02:39:08;8.53;;;7.70;;
19907;SDS011;10116;53.112;7.356;2023-09-12T02:41:33;8.57;;;7.87;;
19907;SDS011;10116;53.112;7.356;2023-09-12T02:43:59;8.00;;;7.30;;
19907;SDS011;10116;53.112;7.356;2023-09-12T02:46:25;7.80;;;7.10;;
19907;SDS011;10116;53.112;7.356;2023-09-12T02:48:50;9.10;;;8.23;;
19907;SDS011;10116;53.112;7.356;2023-09-12T02:51:16;8.20;;;7.40;;
19907;SDS011;10116;53.112;7.356;2023-09-12T02:53:42;9.30;;;7.40;;
19907;SDS011;10116;53.112;7.356;2023-09-12T02:56:07;7.70;;;7.10;;
19907;SDS011;10116;53.112;7.356;2023-09-12T02:58:33;9.57;;;7.10;;
19907;SDS011;10116;53.112;7.356;2023-09-12T03:00:59;10.80;;;7.10;;
19907;SDS011;10116;53.112;7.356;2023-09-12T03:03:26;8.03;;;7.40;;
19907;SDS011;10116;53.112;7.356;2023-09-12T03:05:58;7.87;;;7.20;;
19907;SDS011;10116;53.112;7.356;2023-09-12T03:08:25;8.33;;;7.63;;
19907;SDS011;10116;53.112;7.356;2023-09-12T03:10:57;7.80;;;7.20;;
19907;SDS011;10116;53.112;7.356;2023-09-12T03:13:26;7.30;;;6.70;;
19907;SDS011;10116;53.112;7.356;2023-09-12T03:15:53;7.53;;;6.67;;
19907;SDS011;10116;53.112;7.356;2023-09-12T03:18:19;7.60;;;6.90;;
19907;SDS011;10116;53.112;7.356;2023-09-12T03:20:44;7.97;;;7.27;;
19907;SDS011;10116;53.112;7.356;2023-09-12T03:23:11;7.17;;;6.47;;
19907;SDS011;10116;53.112;7.356;2023-09-12T03:25:38;7.53;;;6.90;;
19907;SDS011;10116;53.112;7.356;2023-09-12T03:28:07;7.33;;;6.70;;
19907;SDS011;10116;53.112;7.356;2023-09-12T03:30:34;9.10;;;7.30;;
19907;SDS011;10116;53.112;7.356;2023-09-12T03:33:00;6.87;;;6.37;;
19907;SDS011;10116;53.112;7.356;2023-09-12T03:35:26;7.07;;;6.47;;
19907;SDS011;10116;53.112;7.356;2023-09-12T03:37:56;7.53;;;6.60;;
19907;SDS011;10116;53.112;7.356;2023-09-12T03:40:22;6.40;;;5.90;;
19907;SDS011;10116;53.112;7.356;2023-09-12T03:42:48;6.30;;;5.90;;
19907;SDS011;10116;53.112;7.356;2023-09-12T03:45:13;6.23;;;5.83;;
19907;SDS011;10116;53.112;7.356;2023-09-12T03:47:39;6.93;;;6.33;;
19907;SDS011;10116;53.112;7.356;2023-09-12T03:50:05;6.93;;;6.33;;
19907;SDS011;10116;53.112;7.356;2023-09-12T03:52:31;7.07;;;6.47;;
19907;SDS011;10116;53.112;7.356;2023-09-12T03:54:57;6.67;;;6.23;;
19907;SDS011;10116;53.112;7.356;2023-09-12T03:57:22;6.07;;;5.63;;
19907;SDS011;10116;53.112;7.356;2023-09-12T03:59:50;6.67;;;6.10;;
19907;SDS011;10116;53.112;7.356;2023-09-12T04:02:16;7.00;;;6.40;;
19907;SDS011;10116;53.112;7.356;2023-09-12T04:04:42;6.90;;;6.30;;
19907;SDS011;10116;53.112;7.356;2023-09-12T04:07:08;6.43;;;5.83;;
19907;SDS011;10116;53.112;7.356;2023-09-12T04:09:34;6.10;;;5.73;;
19907;SDS011;10116;53.112;7.356;2023-09-12T04:11:59;6.70;;;6.10;;
19907;SDS011;10116;53.112;7.356;2023-09-12T04:14:26;6.30;;;5.80;;
19907;SDS011;10116;53.112;7.356;2023-09-12T04:16:52;7.40;;;6.70;;
19907;SDS011;10116;53.112;7.356;2023-09-12T04:19:17;6.43;;;5.93;;
19907;SDS011;10116;53.112;7.356;2023-09-12T04:21:43;6.73;;;6.23;;
19907;SDS011;10116;53.112;7.356;2023-09-12T04:24:09;5.90;;;5.47;;
19907;SDS011;10116;53.112;7.356;2023-09-12T04:26:34;6.77;;;6.27;;
19907;SDS011;10116;53.112;7.356;2023-09-12T04:29:00;6.60;;;6.20;;
19907;SDS011;10116;53.112;7.356;2023-09-12T04:31:26;7.13;;;6.57;;
19907;SDS011;10116;53.112;7.356;2023-09-12T04:33:51;6.77;;;6.23;;
19907;SDS011;10116;53.112;7.356;2023-09-12T04:36:17;6.60;;;6.20;;
19907;SDS011;10116;53.112;7.356;2023-09-12T04:38:44;7.67;;;7.03;;
19907;SDS011;10116;53.112;7.356;2023-09-12T04:41:11;6.70;;;6.20;;
19907;SDS011;10116;53.112;7.356;2023-09-12T04:43:40;6.23;;;5.83;;
19907;SDS011;10116;53.112;7.356;2023-09-12T04:46:06;6.53;;;6.10;;
19907;SDS011;10116;53.112;7.356;2023-09-12T04:48:31;6.30;;;5.80;;
19907;SDS011;10116;53.112;7.356;2023-09-12T04:50:57;6.13;;;5.73;;
19907;SDS011;10116;53.112;7.356;2023-09-12T04:53:23;6.47;;;5.87;;
19907;SDS011;10116;53.112;7.356;2023-09-12T04:55:49;6.27;;;5.77;;
19907;SDS011;10116;53.112;7.356;2023-09-12T04:58:17;6.47;;;5.97;;
19907;SDS011;10116;53.112;7.356;2023-09-12T05:00:43;7.50;;;6.80;;
19907;SDS011;10116;53.112;7.356;2023-09-12T05:03:08;7.03;;;6.50;;
19907;SDS011;10116;53.112;7.356;2023-09-12T05:05:35;6.63;;;6.13;;
19907;SDS011;10116;53.112;7.356;2023-09-12T05:08:01;6.30;;;5.90;;
19907;SDS011;10116;53.112;7.356;2023-09-12T05:10:27;6.83;;;6.20;;
19907;SDS011;10116;53.112;7.356;2023-09-12T05:12:53;6.30;;;5.87;;
19907;SDS011;10116;53.112;7.356;2023-09-12T05:15:18;6.37;;;5.93;;
19907;SDS011;10116;53.112;7.356;2023-09-12T05:17:44;5.97;;;5.57;;
19907;SDS011;10116;53.112;7.356;2023-09-12T05:20:10;6.40;;;6.00;;
19907;SDS011;10116;53.112;7.356;2023-09-12T05:22:36;5.70;;;5.30;;
19907;SDS011;10116;53.112;7.356;2023-09-12T05:25:02;6.07;;;5.67;;
19907;SDS011;10116;53.112;7.356;2023-09-12T05:27:27;6.30;;;5.90;;
19907;SDS011;10116;53.112;7.356;2023-09-12T05:29:53;6.20;;;5.60;;
19907;SDS011;10116;53.112;7.356;2023-09-12T05:32:19;6.50;;;5.97;;
19907;SDS011;10116;53.112;7.356;2023-09-12T05:34:44;6.20;;;5.80;;
19907;SDS011;10116;53.112;7.356;2023-09-12T05:37:10;6.13;;;5.70;;
19907;SDS011;10116;53.112;7.356;2023-09-12T05:39:36;7.20;;;6.50;;
19907;SDS011;10116;53.112;7.356;2023-09-12T05:42:02;6.70;;;6.20;;
19907;SDS011;10116;53.112;7.356;2023-09-12T05:44:28;6.00;;;5.60;;
19907;SDS011;10116;53.112;7.356;2023-09-12T05:46:53;6.60;;;6.17;;
19907;SDS011;10116;53.112;7.356;2023-09-12T05:49:19;6.60;;;6.10;;
19907;SDS011;10116;53.112;7.356;2023-09-12T05:51:45;6.80;;;6.30;;
19907;SDS011;10116;53.112;7.356;2023-09-12T05:54:11;7.00;;;6.50;;
19907;SDS011;10116;53.112;7.356;2023-09-12T05:56:38;7.47;;;6.87;;
19907;SDS011;10116;53.112;7.356;2023-09-12T05:59:05;6.93;;;6.23;;
19907;SDS011;10116;53.112;7.356;2023-09-12T06:01:31;6.10;;;5.70;;
19907;SDS011;10116;53.112;7.356;2023-09-12T06:03:57;7.07;;;6.40;;
19907;SDS011;10116;53.112;7.356;2023-09-12T06:06:22;6.60;;;6.17;;
19907;SDS011;10116;53.112;7.356;2023-09-12T06:08:48;6.77;;;6.13;;
19907;SDS011;10116;53.112;7.356;2023-09-12T06:11:14;6.10;;;5.70;;
19907;SDS011;10116;53.112;7.356;2023-09-12T06:13:39;7.40;;;6.90;;
19907;SDS011;10116;53.112;7.356;2023-09-12T06:16:05;6.57;;;6.00;;
19907;SDS011;10116;53.112;7.356;2023-09-12T06:18:31;6.30;;;5.90;;
19907;SDS011;10116;53.112;7.356;2023-09-12T06:21:00;6.63;;;6.23;;
19907;SDS011;10116;53.112;7.356;2023-09-12T06:23:31;5.80;;;5.47;;
19907;SDS011;10116;53.112;7.356;2023-09-12T06:25:57;6.33;;;5.90;;
19907;SDS011;10116;53.112;7.356;2023-09-12T06:28:27;5.30;;;5.00;;
19907;SDS011;10116;53.112;7.356;2023-09-12T06:30:53;5.70;;;5.30;;
19907;SDS011;10116;53.112;7.356;2023-09-12T06:33:20;6.00;;;5.50;;
19907;SDS011;10116;53.112;7.356;2023-09-12T06:35:49;5.23;;;4.90;;
19907;SDS011;10116;53.112;7.356;2023-09-12T06:38:17;5.43;;;5.03;;
19907;SDS011;10116;53.112;7.356;2023-09-12T06:40:43;6.40;;;6.00;;
19907;SDS011;10116;53.112;7.356;2023-09-12T06:43:09;5.10;;;4.80;;
19907;SDS011;10116;53.112;7.356;2023-09-12T06:45:35;5.57;;;5.20;;
19907;SDS011;10116;53.112;7.356;2023-09-12T06:48:02;5.97;;;5.50;;
19907;SDS011;10116;53.112;7.356;2023-09-12T06:50:29;8.20;;;6.20;;
19907;SDS011;10116;53.112;7.356;2023-09-12T06:52:54;6.40;;;6.00;;
19907;SDS011;10116;53.112;7.356;2023-09-12T06:55:20;6.50;;;6.10;;
19907;SDS011;10116;53.112;7.356;2023-09-12T06:57:46;5.33;;;4.97;;
19907;SDS011;10116;53.112;7.356;2023-09-12T07:00:12;6.00;;;5.50;;
19907;SDS011;10116;53.112;7.356;2023-09-12T07:02:38;6.27;;;5.87;;
19907;SDS011;10116;53.112;7.356;2023-09-12T07:05:04;6.80;;;6.40;;
19907;SDS011;10116;53.112;7.356;2023-09-12T07:07:30;6.30;;;5.90;;
19907;SDS011;10116;53.112;7.356;2023-09-12T07:09:56;7.00;;;6.40;;
19907;SDS011;10116;53.112;7.356;2023-09-12T07:12:22;6.47;;;6.07;;
19907;SDS011;10116;53.112;7.356;2023-09-12T07:14:48;7.43;;;6.83;;
19907;SDS011;10116;53.112;7.356;2023-09-12T07:17:15;5.40;;;5.10;;
19907;SDS011;10116;53.112;7.356;2023-09-12T07:19:42;7.57;;;6.90;;
19907;SDS011;10116;53.112;7.356;2023-09-12T07:22:08;7.20;;;6.70;;
19907;SDS011;10116;53.112;7.356;2023-09-12T07:24:34;8.67;;;7.87;;
19907;SDS011;10116;53.112;7.356;2023-09-12T07:26:59;7.50;;;6.90;;
19907;SDS011;10116;53.112;7.356;2023-09-12T07:29:25;7.83;;;7.13;;
19907;SDS011;10116;53.112;7.356;2023-09-12T07:31:52;7.63;;;7.13;;
19907;SDS011;10116;53.112;7.356;2023-09-12T07:34:19;7.73;;;7.13;;
19907;SDS011;10116;53.112;7.356;2023-09-12T07:36:45;14.13;;;8.40;;
19907;SDS011;10116;53.112;7.356;2023-09-12T07:39:11;9.80;;;7.50;;
19907;SDS011;10116;53.112;7.356;2023-09-12T07:41:38;14.00;;;7.47;;
19907;SDS011;10116;53.112;7.356;2023-09-12T07:44:03;13.10;;;8.57;;
19907;SDS011;10116;53.112;7.356;2023-09-12T07:46:30;9.73;;;8.63;;
19907;SDS011;10116;53.112;7.356;2023-09-12T07:48:56;11.33;;;8.17;;
19907;SDS011;10116;53.112;7.356;2023-09-12T07:51:23;12.23;;;9.00;;
19907;SDS011;10116;53.112;7.356;2023-09-12T07:53:49;8.53;;;7.63;;
19907;SDS011;10116;53.112;7.356;2023-09-12T07:56:15;8.30;;;7.60;;
19907;SDS011;10116;53.112;7.356;2023-09-12T07:58:40;8.60;;;7.80;;
19907;SDS011;10116;53.112;7.356;2023-09-12T08:01:06;8.40;;;7.37;;
19907;SDS011;10116;53.112;7.356;2023-09-12T08:03:34;9.70;;;8.70;;
19907;SDS011;10116;53.112;7.356;2023-09-12T08:06:01;9.93;;;7.67;;
19907;SDS011;10116;53.112;7.356;2023-09-12T08:08:28;11.67;;;9.50;;
19907;SDS011;10116;53.112;7.356;2023-09-12T08:10:54;10.20;;;9.03;;
19907;SDS011;10116;53.112;7.356;2023-09-12T08:13:19;11.90;;;9.00;;
19907;SDS011;10116;53.112;7.356;2023-09-12T08:15:45;10.27;;;9.40;;
19907;SDS011;10116;53.112;7.356;2023-09-12T08:18:11;11.00;;;9.47;;
19907;SDS011;10116;53.112;7.356;2023-09-12T08:20:37;10.47;;;9.10;;
19907;SDS011;10116;53.112;7.356;2023-09-12T08:23:03;10.03;;;9.03;;
19907;SDS011;10116;53.112;7.356;2023-09-12T08:25:29;9.70;;;8.80;;
19907;SDS011;10116;53.112;7.356;2023-09-12T08:27:54;10.13;;;9.00;;
19907;SDS011;10116;53.112;7.356;2023-09-12T08:30:20;16.30;;;10.53;;
19907;SDS011;10116;53.112;7.356;2023-09-12T08:32:47;11.50;;;10.30;;
19907;SDS011;10116;53.112;7.356;2023-09-12T08:35:13;11.38;;;10.25;;
19907;SDS011;10116;53.112;7.356;2023-09-12T08:37:39;10.53;;;9.53;;
19907;SDS011;10116;53.112;7.356;2023-09-12T08:40:07;10.97;;;9.87;;
19907;SDS011;10116;53.112;7.356;2023-09-12T08:42:39;10.80;;;9.80;;
19907;SDS011;10116;53.112;7.356;2023-09-12T08:45:06;11.00;;;10.00;;
19907;SDS011;10116;53.112;7.356;2023-09-12T08:47:39;10.03;;;9.20;;
19907;SDS011;10116;53.112;7.356;2023-09-12T08:50:07;10.77;;;9.77;;
19907;SDS011;10116;53.112;7.356;2023-09-12T08:52:40;9.97;;;9.07;;
19907;SDS011;10116;53.112;7.356;2023-09-12T08:55:09;11.00;;;10.00;;
19907;SDS011;10116;53.112;7.356;2023-09-12T08:57:37;9.30;;;8.60;;
19907;SDS011;10116;53.112;7.356;2023-09-12T09:00:04;10.87;;;9.87;;
19907;SDS011;10116;53.112;7.356;2023-09-12T09:02:36;10.87;;;9.40;;
19907;SDS011;10116;53.112;7.356;2023-09-12T09:05:05;11.70;;;10.37;;
19907;SDS011;10116;53.112;7.356;2023-09-12T09:07:34;9.97;;;9.07;;
19907;SDS011;10116;53.112;7.356;2023-09-12T09:10:04;11.07;;;10.00;;
19907;SDS011;10116;53.112;7.356;2023-09-12T09:12:31;12.23;;;11.03;;
19907;SDS011;10116;53.112;7.356;2023-09-12T09:17:53;11.57;;;10.37;;
19907;SDS011;10116;53.112;7.356;2023-09-12T09:20:30;9.37;;;8.47;;
19907;SDS011;10116;53.112;7.356;2023-09-12T09:25:34;11.70;;;10.50;;
19907;SDS011;10116;53.112;7.356;2023-09-12T09:28:04;10.77;;;9.67;;
19907;SDS011;10116;53.112;7.356;2023-09-12T09:30:50;11.20;;;10.20;;
19907;SDS011;10116;53.112;7.356;2023-09-12T09:33:17;11.00;;;9.90;;
19907;SDS011;10116;53.112;7.356;2023-09-12T09:35:47;10.67;;;9.77;;
19907;SDS011;10116;53.112;7.356;2023-09-12T09:38:14;11.27;;;9.87;;
19907;SDS011;10116;53.112;7.356;2023-09-12T09:40:41;9.50;;;8.63;;
19907;SDS011;10116;53.112;7.356;2023-09-12T09:43:08;9.57;;;8.73;;
19907;SDS011;10116;53.112;7.356;2023-09-12T09:45:42;10.33;;;9.17;;
19907;SDS011;10116;53.112;7.356;2023-09-12T09:48:10;9.50;;;8.70;;
19907;SDS011;10116;53.112;7.356;2023-09-12T09:50:42;9.47;;;8.67;;
19907;SDS011;10116;53.112;7.356;2023-09-12T09:53:07;9.60;;;8.60;;
19907;SDS011;10116;53.112;7.356;2023-09-12T09:55:35;9.67;;;8.77;;
19907;SDS011;10116;53.112;7.356;2023-09-12T09:58:01;8.90;;;8.00;;
19907;SDS011;10116;53.112;7.356;2023-09-12T10:00:28;8.57;;;7.77;;
19907;SDS011;10116;53.112;7.356;2023-09-12T10:02:54;9.37;;;8.30;;
19907;SDS011;10116;53.112;7.356;2023-09-12T10:05:21;8.53;;;7.77;;
19907;SDS011;10116;53.112;7.356;2023-09-12T10:07:49;8.33;;;7.53;;
19907;SDS011;10116;53.112;7.356;2023-09-12T10:10:18;9.60;;;8.23;;
19907;SDS011;10116;53.112;7.356;2023-09-12T10:12:57;8.67;;;7.93;;
19907;SDS011;10116;53.112;7.356;2023-09-12T10:15:26;9.17;;;8.37;;
19907;SDS011;10116;53.112;7.356;2023-09-12T10:17:56;8.97;;;8.17;;
19907;SDS011;10116;53.112;7.356;2023-09-12T10:20:37;8.37;;;7.57;;
19907;SDS011;10116;53.112;7.356;2023-09-12T10:23:52;7.97;;;7.30;;
19907;SDS011;10116;53.112;7.356;2023-09-12T10:26:07;8.13;;;7.40;;
19907;SDS011;10116;53.112;7.356;2023-09-12T10:28:39;7.73;;;7.13;;
19907;SDS011;10116;53.112;7.356;2023-09-12T10:31:06;8.27;;;7.57;;
19907;SDS011;10116;53.112;7.356;2023-09-12T10:33:33;7.57;;;6.90;;
19907;SDS011;10116;53.112;7.356;2023-09-12T10:36:00;7.97;;;7.27;;
19907;SDS011;10116;53.112;7.356;2023-09-12T10:38:29;8.10;;;7.30;;
19907;SDS011;10116;53.112;7.356;2023-09-12T10:40:57;7.50;;;6.80;;
19907;SDS011;10116;53.112;7.356;2023-09-12T10:43:26;7.87;;;7.27;;
19907;SDS011;10116;53.112;7.356;2023-09-12T10:45:53;8.70;;;6.90;;
19907;SDS011;10116;53.112;7.356;2023-09-12T10:48:21;7.60;;;6.90;;
19907;SDS011;10116;53.112;7.356;2023-09-12T10:50:48;6.90;;;6.40;;
19907;SDS011;10116;53.112;7.356;2023-09-12T10:53:16;8.03;;;7.10;;
19907;SDS011;10116;53.112;7.356;2023-09-12T10:55:42;7.77;;;7.20;;
19907;SDS011;10116;53.112;7.356;2023-09-12T10:58:24;8.47;;;7.87;;
19907;SDS011;10116;53.112;7.356;2023-09-12T11:03:47;9.30;;;7.00;;
19907;SDS011;10116;53.112;7.356;2023-09-12T11:11:42;7.23;;;6.73;;
19907;SDS011;10116;53.112;7.356;2023-09-12T11:14:10;8.00;;;7.30;;
19907;SDS011;10116;53.112;7.356;2023-09-12T11:16:36;7.90;;;7.20;;
19907;SDS011;10116;53.112;7.356;2023-09-12T11:21:44;7.37;;;6.67;;
19907;SDS011;10116;53.112;7.356;2023-09-12T11:24:17;7.27;;;6.77;;
19907;SDS011;10116;53.112;7.356;2023-09-12T11:26:53;7.80;;;7.07;;
19907;SDS011;10116;53.112;7.356;2023-09-12T11:29:26;5.70;;;5.30;;
19907;SDS011;10116;53.112;7.356;2023-09-12T11:31:55;6.80;;;6.30;;
19907;SDS011;10116;53.112;7.356;2023-09-12T11:34:25;6.80;;;6.30;;
19907;SDS011;10116;53.112;7.356;2023-09-12T11:36:56;7.00;;;6.50;;
19907;SDS011;10116;53.112;7.356;2023-09-12T11:39:24;7.20;;;6.50;;
19907;SDS011;10116;53.112;7.356;2023-09-12T11:41:53;7.03;;;6.53;;
19907;SDS011;10116;53.112;7.356;2023-09-12T11:44:21;6.43;;;5.93;;
19907;SDS011;10116;53.112;7.356;2023-09-12T11:46:48;6.63;;;6.13;;
19907;SDS011;10116;53.112;7.356;2023-09-12T11:49:14;6.63;;;6.13;;
19907;SDS011;10116;53.112;7.356;2023-09-12T11:51:50;6.70;;;6.20;;
19907;SDS011;10116;53.112;7.356;2023-09-12T11:54:20;7.20;;;6.60;;
19907;SDS011;10116;53.112;7.356;2023-09-12T11:56:49;6.80;;;6.30;;
19907;SDS011;10116;53.112;7.356;2023-09-12T11:59:22;6.23;;;5.80;;
19907;SDS011;10116;53.112;7.356;2023-09-12T12:01:48;6.30;;;5.90;;
19907;SDS011;10116;53.112;7.356;2023-09-12T12:04:14;6.43;;;6.00;;
19907;SDS011;10116;53.112;7.356;2023-09-12T12:06:40;6.53;;;6.03;;
19907;SDS011;10116;53.112;7.356;2023-09-12T12:09:06;6.87;;;6.27;;
19907;SDS011;10116;53.112;7.356;2023-09-12T12:11:32;6.87;;;6.37;;
19907;SDS011;10116;53.112;7.356;2023-09-12T12:13:58;7.50;;;6.20;;
19907;SDS011;10116;53.112;7.356;2023-09-12T12:16:37;6.27;;;5.67;;
19907;SDS011;10116;53.112;7.356;2023-09-12T12:19:03;6.87;;;6.30;;
19907;SDS011;10116;53.112;7.356;2023-09-12T12:21:28;5.97;;;5.53;;
19907;SDS011;10116;53.112;7.356;2023-09-12T12:24:00;5.90;;;5.50;;
19907;SDS011;10116;53.112;7.356;2023-09-12T12:26:27;7.13;;;6.53;;
19907;SDS011;10116;53.112;7.356;2023-09-12T12:28:54;6.10;;;5.60;;
19907;SDS011;10116;53.112;7.356;2023-09-12T12:31:20;6.13;;;5.63;;
19907;SDS011;10116;53.112;7.356;2023-09-12T12:33:49;6.73;;;6.23;;
19907;SDS011;10116;53.112;7.356;2023-09-12T12:36:18;6.40;;;5.90;;
19907;SDS011;10116;53.112;7.356;2023-09-12T12:38:45;6.50;;;6.00;;
19907;SDS011;10116;53.112;7.356;2023-09-12T12:44:08;8.10;;;6.50;;
19907;SDS011;10116;53.112;7.356;2023-09-12T12:46:47;6.33;;;5.83;;
19907;SDS011;10116;53.112;7.356;2023-09-12T12:49:14;6.60;;;6.10;;
19907;SDS011;10116;53.112;7.356;2023-09-12T12:51:41;6.20;;;5.70;;
19907;SDS011;10116;53.112;7.356;2023-09-12T12:54:07;6.73;;;6.17;;
19907;SDS011;10116;53.112;7.356;2023-09-12T12:56:33;6.13;;;5.53;;
19907;SDS011;10116;53.112;7.356;2023-09-12T12:59:00;6.57;;;6.07;;
19907;SDS011;10116;53.112;7.356;2023-09-12T13:01:33;6.37;;;5.20;;
19907;SDS011;10116;53.112;7.356;2023-09-12T13:03:59;4.93;;;4.63;;
19907;SDS011;10116;53.112;7.356;2023-09-12T13:06:25;7.40;;;6.10;;
19907;SDS011;10116;53.112;7.356;2023-09-12T13:08:52;6.00;;;5.50;;
19907;SDS011;10116;53.112;7.356;2023-09-12T13:11:18;5.70;;;5.20;;
19907;SDS011;10116;53.112;7.356;2023-09-12T13:13:44;5.60;;;5.10;;
19907;SDS011;10116;53.112;7.356;2023-09-12T13:16:13;6.23;;;5.80;;
19907;SDS011;10116;53.112;7.356;2023-09-12T13:18:40;5.40;;;5.00;;
19907;SDS011;10116;53.112;7.356;2023-09-12T13:21:06;5.73;;;5.23;;
19907;SDS011;10116;53.112;7.356;2023-09-12T13:23:35;5.60;;;5.20;;
19907;SDS011;10116;53.112;7.356;2023-09-12T13:26:03;5.60;;;5.20;;
19907;SDS011;10116;53.112;7.356;2023-09-12T13:28:29;6.03;;;5.50;;
19907;SDS011;10116;53.112;7.356;2023-09-12T13:30:55;5.90;;;5.30;;
19907;SDS011;10116;53.112;7.356;2023-09-12T13:33:22;5.50;;;5.07;;
19907;SDS011;10116;53.112;7.356;2023-09-12T13:35:48;5.80;;;5.30;;
19907;SDS011;10116;53.112;7.356;2023-09-12T13:38:14;6.77;;;5.10;;
19907;SDS011;10116;53.112;7.356;2023-09-12T13:40:42;6.00;;;5.30;;
19907;SDS011;10116;53.112;7.356;2023-09-12T13:43:08;5.60;;;4.90;;
19907;SDS011;10116;53.112;7.356;2023-09-12T13:45:34;7.27;;;5.30;;
19907;SDS011;10116;53.112;7.356;2023-09-12T13:48:01;5.43;;;4.70;;
19907;SDS011;10116;53.112;7.356;2023-09-12T13:50:28;5.17;;;4.87;;
19907;SDS011;10116;53.112;7.356;2023-09-12T13:52:54;5.20;;;4.80;;
19907;SDS011;10116;53.112;7.356;2023-09-12T13:55:21;5.80;;;5.20;;
19907;SDS011;10116;53.112;7.356;2023-09-12T13:57:47;5.50;;;5.10;;
19907;SDS011;10116;53.112;7.356;2023-09-12T14:00:13;5.20;;;4.80;;
19907;SDS011;10116;53.112;7.356;2023-09-12T14:02:39;5.70;;;5.13;;
19907;SDS011;10116;53.112;7.356;2023-09-12T14:05:05;6.13;;;4.70;;
19907;SDS011;10116;53.112;7.356;2023-09-12T14:07:30;5.33;;;4.80;;
19907;SDS011;10116;53.112;7.356;2023-09-12T14:09:56;5.30;;;4.90;;
19907;SDS011;10116;53.112;7.356;2023-09-12T14:12:22;4.67;;;4.47;;
19907;SDS011;10116;53.112;7.356;2023-09-12T14:14:49;6.07;;;5.67;;
19907;SDS011;10116;53.112;7.356;2023-09-12T14:17:14;5.00;;;4.73;;
19907;SDS011;10116;53.112;7.356;2023-09-12T14:19:40;4.80;;;4.50;;
19907;SDS011;10116;53.112;7.356;2023-09-12T14:22:06;5.20;;;4.80;;
19907;SDS011;10116;53.112;7.356;2023-09-12T14:24:32;4.73;;;4.23;;
19907;SDS011;10116;53.112;7.356;2023-09-12T14:26:57;5.50;;;4.90;;
19907;SDS011;10116;53.112;7.356;2023-09-12T14:29:23;5.00;;;4.57;;
19907;SDS011;10116;53.112;7.356;2023-09-12T14:31:51;4.80;;;4.50;;
19907;SDS011;10116;53.112;7.356;2023-09-12T14:34:25;4.87;;;4.60;;
19907;SDS011;10116;53.112;7.356;2023-09-12T14:36:55;5.40;;;5.00;;
19907;SDS011;10116;53.112;7.356;2023-09-12T14:39:21;5.00;;;4.70;;
19907;SDS011;10116;53.112;7.356;2023-09-12T14:41:47;5.73;;;5.33;;
19907;SDS011;10116;53.112;7.356;2023-09-12T14:44:20;5.17;;;4.77;;
19907;SDS011;10116;53.112;7.356;2023-09-12T14:46:46;5.27;;;4.90;;
19907;SDS011;10116;53.112;7.356;2023-09-12T14:49:13;4.80;;;4.50;;
19907;SDS011;10116;53.112;7.356;2023-09-12T14:51:39;5.00;;;4.60;;
19907;SDS011;10116;53.112;7.356;2023-09-12T14:54:05;4.80;;;4.40;;
19907;SDS011;10116;53.112;7.356;2023-09-12T14:56:31;4.70;;;4.40;;
19907;SDS011;10116;53.112;7.356;2023-09-12T14:58:58;5.33;;;4.93;;
19907;SDS011;10116;53.112;7.356;2023-09-12T15:01:23;5.97;;;5.47;;
19907;SDS011;10116;53.112;7.356;2023-09-12T15:03:52;5.03;;;4.63;;
19907;SDS011;10116;53.112;7.356;2023-09-12T15:06:19;5.90;;;5.40;;
19907;SDS011;10116;53.112;7.356;2023-09-12T15:08:44;9.77;;;4.40;;
19907;SDS011;10116;53.112;7.356;2023-09-12T15:11:10;4.73;;;4.43;;